DIRECCIÓN GENERAL DE AERONÁUTICA CIVIL
DIRECCIÓN METEOROLÓGICA DE CHILE
INFORMACIÓN METAR Y TAF

FIR PUERTO MONTT

Estación: SCQP
METAR SCQP 281700Z 03013KT 9999 FEW040 BKN058 OVC120 10/08 Q1012=

TAF SCQP 281624Z 2818/2918 02012KT 5000 RA BKN020 BKN060 TX11/2819Z TN08/2910Z BECMG 2900/2902 33005KT BECMG 2906/2908 9999 NSW BKN030=

Estación: SCVD
METAR SCVD 281700Z 04008KT 010V070 5000 RA SCT006 OVC013 09/09 Q1010=

TAF SCVD 281630Z 2818/2906 01015KT 5000 RA BKN010 BKN060 TX11/2818Z TN09/2906Z BECMG 2900/2902 31005KT=

Estación: SCJO
METAR SCJO 281700Z 01011KT 320V080 9999 SCT018 BKN030 11/10 Q1008=

TAF SCJO 281625Z 2818/2906 35015KT 8000 SHRA BKN015 BKN030 TX12/2818Z TN08/2906Z BECMG 2900/2902 32005KT=

Estación: SCTE
METAR SCTE 281700Z 36015KT 9999 SCT015 BKN050 12/10 Q1007 NOSIG=

TAF SCTE 281626Z 2818/2918 35015KT 7000 SHRA BKN010 BKN030 TX13/2818Z TN07/2910Z BECMG 2900/2902 31007KT BKN020 BKN040=

Estación: SCPQ
METAR SCPQ 281700Z 31012KT 280V350 8000 -SHRA SCT008 BKN065 13/11 Q1003=

TAF SCPQ 281627Z 2818/2906 34015KT 7000 SHRA BKN010 BKN030 TX13/2818Z TN09/2906Z BECMG 2900/2902 BKN020 BKN040=

Estación: SCON
METAR SCON 281700Z VRB04KT 4000 -RA BKN006 OVC015 12/12 Q1003=

TAF SCON NIL=

Estación: SCTN
METAR SCTN 281700Z 35021G31KT 9999 SCT009 OVC020 12/11 Q1004=

TAF SCTN 281627Z 2818/2906 34017KT 5000 SHRA BKN010 BKN030 TX13/2818Z TN09/2906Z BECMG 2900/2902 32007KT BKN020 BKN040=

Estación: SCFT
METAR SCFT 281700Z 00000KT 9999 BKN003 BKN043 09/08 Q1003=

NIL=

Estación: SCAP
METAR SCAP 281700Z VRB02KT 9999 4000NE BCFG FEW003 OVC043 10/09 Q1007=

NIL=

Estación: SCMK
METAR SCMK 281700Z 35005KT 2000 -RA OVC005 12/11 Q1000=

TAF SCMK 281627Z 2818/2906 34015KT 5000 SHRA BKN010 BKN030 TX12/2818Z TN10/2906Z BECMG 2900/2902 BKN020 BKN040=

Estación: SCAS
METAR SCAS 281700Z 00000KT 9999 -SHRA SCT016 BKN030 11/11 Q0998=

NIL=

Estación: SCCY
METAR SCCY 281700Z 05010KT 9999 FEW026 BKN036 12/09 Q0996=

TAF SCCY 281628Z 2818/2906 33010KT 9999 BKN040 TX11/2818Z TN06/2906Z TEMPO 2818/2822 6000 -SHRA BKN010 BKN030=

Estación: SCBA
METAR SCBA 281700Z 31010KT 9999 FEW035 BKN050 10/08 Q0996=

TAF SCBA 281629Z 2818/2918 33010KT 9999 BKN030 BKN050 TX11/2818Z TN02 /2910Z TEMPO 2818/2904 5000 SHRA BKN015 BKN030=

Estación: SCCC
METAR SCCC 281700Z 11003KT 9999 BKN040 11708 Q0995=

NIL=

Estación: SCHR
METAR SCHR 281700Z 25004KT 9999 FEW020 OVC040 11/08 Q0991=

TAF SCHR 281033Z 2812/2900 VRB03KT 9999 -SHRA BKN033 TN06/2812Z TX10/2819Z TEMPO 2813/2817 30005KT 8000 -RA BKN020 BECMG 2817/2819 SCT040=


Volver